Time;durP1;ratioP1;P1;durP2;ratioP2;P2;SDS_P1;SDS_P2;PMS_P1;PMS_P2;Temp;Humidity;BMP_temperature;BMP_pressure;BME280_temperature;BME280_humidity;BME280_pressure;Samples;Min_cycle;Max_cycle;Signal;HPM_P1;HPM_P2
2023/09/27 00:02:16;;;;;;;;;;;;;;;;;;5071989;28;20484;-73
2023/09/27 00:04:41;;;;;;;;;;;;;;;;;;5071740;28;19908;-72
2023/09/27 00:07:07;;;;;;;;;;;;;;;;;;5071134;28;19917;-72
2023/09/27 00:09:33;;;;;;;;;;;;;;;;;;5071912;28;19915;-73
2023/09/27 00:12:03;;;;;;;;;;;;;;;;;;5053599;28;20370;-73
2023/09/27 00:14:30;;;;;;;;;;;;;;;;;;5071690;28;19912;-71
2023/09/27 00:16:56;;;;;;;;;;;;;;;;;;5072324;28;19995;-74
2023/09/27 00:19:26;;;;;;;;;;;;;;;;;;5072223;28;19976;-75
2023/09/27 00:21:52;;;;;;;;;;;;;;;;;;5050758;28;19916;-75
2023/09/27 00:24:18;;;;;;;;;;;;;;;;;;5070404;28;19913;-75
2023/09/27 00:26:44;;;;;;;;;;;;;;;;;;5051163;28;19909;-75
2023/09/27 00:29:12;;;;;;;;;;;;;;;;;;5070971;28;19962;-75
2023/09/27 00:31:38;;;;;;;;;;;;;;;;;;5054198;28;20268;-75
2023/09/27 00:34:04;;;;;;;;;;;;;;;;;;5053970;28;19957;-75
2023/09/27 00:36:30;;;;;;;;;;;;;;;;;;5087562;28;20012;-75
2023/09/27 00:38:56;;;;;;;;;;;;;;;;;;5071936;28;19940;-75
2023/09/27 00:41:22;;;;;;;;;;;;;;;;;;5097060;22;19931;-71
2023/09/27 00:43:48;;;;;;;;;;;;;;;;;;5111491;28;20012;-73
2023/09/27 00:46:14;;;;;;;;;;;;;;;;;;5112009;28;19907;-73
2023/09/27 00:48:40;;;;;;;;;;;;;;;;;;5112396;28;19908;-73
2023/09/27 00:51:06;;;;;;;;;;;;;;;;;;5111916;28;19915;-73
2023/09/27 00:53:32;;;;;;;;;;;;;;;;;;5111910;28;20374;-72
2023/09/27 00:55:58;;;;;;;;;;;;;;;;;;5112133;28;20298;-73
2023/09/27 00:58:24;;;;;;;;;;;;;;;;;;5111009;28;19908;-74
2023/09/27 01:00:50;;;;;;;;;;;;;;;;;;5112155;28;19912;-73
2023/09/27 01:03:16;;;;;;;;;;;;;;;;;;5112096;28;19919;-72
2023/09/27 01:05:42;;;;;;;;;;;;;;;;;;5112232;28;19907;-74
2023/09/27 01:08:08;;;;;;;;;;;;;;;;;;5110750;28;19961;-73
2023/09/27 01:10:34;;;;;;;;;;;;;;;;;;5111826;28;19911;-73
2023/09/27 01:12:59;;;;;;;;;;;;;;;;;;5110408;28;19954;-73
2023/09/27 01:15:25;;;;;;;;;;;;;;;;;;5111763;28;19908;-73
2023/09/27 01:17:51;;;;;;;;;;;;;;;;;;5114263;28;20363;-73
2023/09/27 01:20:17;;;;;;;;;;;;;;;;;;5115816;28;19908;-73
2023/09/27 01:22:43;;;;;;;;;;;;;;;;;;5115678;28;20002;-73
2023/09/27 01:25:09;;;;;;;;;;;;;;;;;;5115333;28;19908;-73
2023/09/27 01:27:36;;;;;;;;;;;;;;;;;;5115862;28;19915;-73
2023/09/27 01:30:05;;;;;;;;;;;;;;;;;;5115659;28;19954;-73
2023/09/27 01:32:31;;;;;;;;;;;;;;;;;;5114275;28;19914;-73
2023/09/27 01:34:57;;;;;;;;;;;;;;;;;;5115473;28;19916;-73
2023/09/27 01:37:23;;;;;;;;;;;;;;;;;;5114355;28;20477;-74
2023/09/27 01:39:49;;;;;;;;;;;;;;;;;;5115439;28;19931;-76
2023/09/27 01:42:18;;;;;;;;;;;;;;;;;;5115374;28;19915;-76
2023/09/27 01:44:44;;;;;;;;;;;;;;;;;;5115415;28;19986;-76
2023/09/27 01:47:13;;;;;;;;;;;;;;;;;;5114001;28;19939;-76
2023/09/27 01:49:39;;;;;;;;;;;;;;;;;;5114346;28;19911;-75
2023/09/27 01:52:07;;;;;;;;;;;;;;;;;;5113705;28;20298;-76
2023/09/27 01:54:33;;;;;;;;;;;;;;;;;;5113724;28;19908;-75
2023/09/27 01:56:59;;;;;;;;;;;;;;;;;;5114086;28;19975;-72
2023/09/27 01:59:25;;;;;;;;;;;;;;;;;;5113917;28;19953;-73
2023/09/27 02:01:51;;;;;;;;;;;;;;;;;;5114109;28;19908;-73
2023/09/27 02:04:17;;;;;;;;;;;;;;;;;;5115014;28;19954;-73
2023/09/27 02:06:43;;;;;;;;;;;;;;;;;;5115026;28;19957;-73
2023/09/27 02:09:09;;;;;;;;;;;;;;;;;;5113557;28;19915;-73
2023/09/27 02:11:34;;;;;;;;;;;;;;;;;;5115158;28;19959;-73
2023/09/27 02:14:03;;;;;;;;;;;;;;;;;;5113765;28;19947;-74
2023/09/27 02:16:29;;;;;;;;;;;;;;;;;;5115121;27;19947;-74
2023/09/27 02:18:55;;;;;;;;;;;;;;;;;;5113931;28;19930;-73
2023/09/27 02:21:21;;;;;;;;;;;;;;;;;;5113482;28;20003;-73
2023/09/27 02:23:47;;;;;;;;;;;;;;;;;;5113580;28;19993;-73
2023/09/27 02:26:13;;;;;;;;;;;;;;;;;;5113524;28;19991;-74
2023/09/27 02:28:39;;;;;;;;;;;;;;;;;;5113644;28;19907;-73
2023/09/27 02:31:05;;;;;;;;;;;;;;;;;;5114840;28;19953;-73
2023/09/27 02:33:33;;;;;;;;;;;;;;;;;;5114577;28;19908;-73
2023/09/27 02:35:59;;;;;;;;;;;;;;;;;;5112885;28;19908;-73
2023/09/27 02:38:25;;;;;;;;;;;;;;;;;;5117932;28;19911;-73
2023/09/27 02:40:51;;;;;;;;;;;;;;;;;;5118204;27;20006;-73
2023/09/27 02:43:17;;;;;;;;;;;;;;;;;;5117195;28;19966;-71
2023/09/27 02:45:44;;;;;;;;;;;;;;;;;;5114190;28;19907;-72
2023/09/27 02:48:10;;;;;;;;;;;;;;;;;;5113251;28;19987;-73
2023/09/27 02:50:38;;;;;;;;;;;;;;;;;;5114087;28;20014;-74
2023/09/27 02:53:08;;;;;;;;;;;;;;;;;;5114066;28;19914;-77
2023/09/27 02:55:34;;;;;;;;;;;;;;;;;;5112758;28;19969;-73
2023/09/27 02:58:00;;;;;;;;;;;;;;;;;;5113788;28;19912;-73
2023/09/27 03:00:26;;;;;;;;;;;;;;;;;;5113768;28;20431;-72
2023/09/27 03:02:52;;;;;;;;;;;;;;;;;;5113791;28;19933;-73
2023/09/27 03:05:20;;;;;;;;;;;;;;;;;;5112389;28;19912;-73
2023/09/27 03:07:46;;;;;;;;;;;;;;;;;;5114085;28;19960;-73
2023/09/27 03:10:12;;;;;;;;;;;;;;;;;;5115574;28;19934;-73
2023/09/27 03:12:39;;;;;;;;;;;;;;;;;;5114782;28;19933;-73
2023/09/27 03:15:05;;;;;;;;;;;;;;;;;;5117293;28;19930;-74
2023/09/27 03:17:31;;;;;;;;;;;;;;;;;;5117446;28;19912;-74
2023/09/27 03:19:57;;;;;;;;;;;;;;;;;;5112580;28;19908;-73
2023/09/27 03:22:22;;;;;;;;;;;;;;;;;;5112154;28;19915;-76
2023/09/27 03:24:48;;;;;;;;;;;;;;;;;;5112210;28;19912;-73
2023/09/27 03:27:14;;;;;;;;;;;;;;;;;;5112005;28;19919;-73
2023/09/27 03:29:40;;;;;;;;;;;;;;;;;;5112256;28;19958;-72
2023/09/27 03:32:06;;;;;;;;;;;;;;;;;;5111782;28;19956;-72
2023/09/27 03:34:32;;;;;;;;;;;;;;;;;;5113115;28;19947;-72
2023/09/27 03:36:58;;;;;;;;;;;;;;;;;;5112993;28;20406;-72
2023/09/27 03:39:28;;;;;;;;;;;;;;;;;;5113104;28;19916;-74
2023/09/27 03:41:54;;;;;;;;;;;;;;;;;;5111662;28;19984;-73
2023/09/27 03:44:20;;;;;;;;;;;;;;;;;;5113138;28;19947;-75
2023/09/27 03:46:48;;;;;;;;;;;;;;;;;;5112927;28;19951;-75
2023/09/27 03:49:14;;;;;;;;;;;;;;;;;;5111863;28;19916;-76
2023/09/27 03:51:43;;;;;;;;;;;;;;;;;;5111781;28;19998;-75
2023/09/27 03:54:09;;;;;;;;;;;;;;;;;;5112884;28;20496;-76
2023/09/27 03:56:35;;;;;;;;;;;;;;;;;;5112887;28;19908;-72
2023/09/27 03:59:01;;;;;;;;;;;;;;;;;;5111289;28;19915;-72
2023/09/27 04:01:27;;;;;;;;;;;;;;;;;;5112815;28;20389;-74
2023/09/27 04:03:53;;;;;;;;;;;;;;;;;;5112387;28;19915;-73
2023/09/27 04:06:19;;;;;;;;;;;;;;;;;;5112558;28;19943;-73
2023/09/27 04:08:46;;;;;;;;;;;;;;;;;;5112552;28;20368;-73
2023/09/27 04:11:11;;;;;;;;;;;;;;;;;;5112457;28;19919;-72
2023/09/27 04:13:37;;;;;;;;;;;;;;;;;;5112285;28;19908;-72
2023/09/27 04:16:03;;;;;;;;;;;;;;;;;;5112328;28;19908;-72
2023/09/27 04:18:29;;;;;;;;;;;;;;;;;;5112348;28;19908;-72
2023/09/27 04:20:55;;;;;;;;;;;;;;;;;;5112593;28;19908;-71
2023/09/27 04:23:21;;;;;;;;;;;;;;;;;;5112118;28;19908;-72
2023/09/27 04:25:47;;;;;;;;;;;;;;;;;;5112218;28;19918;-72
2023/09/27 04:28:13;;;;;;;;;;;;;;;;;;5111091;28;19915;-73
2023/09/27 04:30:40;;;;;;;;;;;;;;;;;;5112074;28;19912;-73
2023/09/27 04:33:07;;;;;;;;;;;;;;;;;;5110543;28;19908;-72
2023/09/27 04:35:33;;;;;;;;;;;;;;;;;;5109583;28;20361;-72
2023/09/27 04:37:59;;;;;;;;;;;;;;;;;;5110803;28;19912;-72
2023/09/27 04:40:25;;;;;;;;;;;;;;;;;;5112040;28;20393;-72
2023/09/27 04:42:51;;;;;;;;;;;;;;;;;;5111853;28;19916;-74
2023/09/27 04:45:17;;;;;;;;;;;;;;;;;;5111499;28;19951;-73
2023/09/27 04:47:44;;;;;;;;;;;;;;;;;;5112251;28;19912;-76
2023/09/27 04:50:10;;;;;;;;;;;;;;;;;;5112635;28;19950;-75
2023/09/27 04:52:36;;;;;;;;;;;;;;;;;;5113215;28;19939;-74
2023/09/27 04:55:02;;;;;;;;;;;;;;;;;;5114853;28;19912;-74
2023/09/27 04:57:28;;;;;;;;;;;;;;;;;;5115933;28;19912;-72
2023/09/27 04:59:54;;;;;;;;;;;;;;;;;;5115797;28;20283;-72
2023/09/27 05:02:20;;;;;;;;;;;;;;;;;;5115621;28;19908;-73
2023/09/27 05:04:47;;;;;;;;;;;;;;;;;;5115514;28;20350;-73
2023/09/27 05:07:13;;;;;;;;;;;;;;;;;;5115607;27;20004;-73
2023/09/27 05:09:39;;;;;;;;;;;;;;;;;;5114782;28;20053;-74
2023/09/27 05:12:05;;;;;;;;;;;;;;;;;;5115685;28;19998;-73
2023/09/27 05:14:31;;;;;;;;;;;;;;;;;;5114224;28;20457;-73
2023/09/27 05:16:59;;;;;;;;;;;;;;;;;;5114768;28;19914;-76
2023/09/27 05:19:28;;;;;;;;;;;;;;;;;;5116024;28;20378;-76
2023/09/27 05:21:53;;;;;;;;;;;;;;;;;;5114672;28;19972;-73
2023/09/27 05:24:19;;;;;;;;;;;;;;;;;;5115230;28;20395;-73
2023/09/27 05:26:45;;;;;;;;;;;;;;;;;;5115812;28;20027;-74
2023/09/27 05:29:13;;;;;;;;;;;;;;;;;;5115375;28;19907;-73
2023/09/27 05:31:39;;;;;;;;;;;;;;;;;;5113656;28;19990;-73
2023/09/27 05:34:05;;;;;;;;;;;;;;;;;;5114112;28;20023;-73
2023/09/27 05:36:31;;;;;;;;;;;;;;;;;;5112501;28;20291;-74
2023/09/27 05:39:02;;;;;;;;;;;;;;;;;;5114214;28;19915;-74
2023/09/27 05:41:28;;;;;;;;;;;;;;;;;;5113640;28;20010;-73
2023/09/27 05:43:56;;;;;;;;;;;;;;;;;;5118037;28;19966;-75
2023/09/27 05:46:22;;;;;;;;;;;;;;;;;;5119908;28;19908;-75
2023/09/27 05:48:49;;;;;;;;;;;;;;;;;;5118320;28;20275;-74
2023/09/27 05:51:18;;;;;;;;;;;;;;;;;;5125850;28;19971;-79
2023/09/27 05:53:46;;;;;;;;;;;;;;;;;;5121471;28;19908;-73
2023/09/27 05:56:13;;;;;;;;;;;;;;;;;;5114000;28;20499;-73
2023/09/27 05:58:39;;;;;;;;;;;;;;;;;;5113616;28;20011;-74
2023/09/27 06:01:07;;;;;;;;;;;;;;;;;;5114954;28;19929;-74
2023/09/27 06:03:32;;;;;;;;;;;;;;;;;;5114454;27;20405;-75
2023/09/27 06:05:58;;;;;;;;;;;;;;;;;;5114945;28;20003;-74
2023/09/27 06:08:24;;;;;;;;;;;;;;;;;;5114579;28;19916;-75
2023/09/27 06:10:50;;;;;;;;;;;;;;;;;;5114771;28;20230;-74
2023/09/27 06:13:16;;;;;;;;;;;;;;;;;;5114423;28;19926;-72
2023/09/27 06:15:42;;;;;;;;;;;;;;;;;;5114502;28;19912;-74
2023/09/27 06:18:08;;;;;;;;;;;;;;;;;;5114769;28;20382;-74
2023/09/27 06:20:34;;;;;;;;;;;;;;;;;;5114756;28;19960;-75
2023/09/27 06:23:03;;;;;;;;;;;;;;;;;;5114496;28;19911;-75
2023/09/27 06:25:30;;;;;;;;;;;;;;;;;;5114254;28;19995;-75
2023/09/27 06:27:56;;;;;;;;;;;;;;;;;;5114819;28;19915;-74
2023/09/27 06:30:22;;;;;;;;;;;;;;;;;;5114466;28;19912;-73
2023/09/27 06:32:48;;;;;;;;;;;;;;;;;;5113134;28;20290;-75
2023/09/27 06:35:14;;;;;;;;;;;;;;;;;;5111735;28;19930;-76
2023/09/27 06:37:40;;;;;;;;;;;;;;;;;;5114273;28;20366;-74
2023/09/27 06:40:09;;;;;;;;;;;;;;;;;;5114101;28;19911;-74
2023/09/27 06:42:35;;;;;;;;;;;;;;;;;;5114532;28;19916;-75
2023/09/27 06:45:01;;;;;;;;;;;;;;;;;;5113785;28;19998;-76
2023/09/27 06:47:34;;;;;;;;;;;;;;;;;;5112795;28;19911;-75
2023/09/27 06:50:00;;;;;;;;;;;;;;;;;;5112749;28;19914;-75
2023/09/27 06:52:27;;;;;;;;;;;;;;;;;;5113716;28;20310;-75
2023/09/27 06:54:53;;;;;;;;;;;;;;;;;;5111693;28;19973;-76
2023/09/27 06:57:19;;;;;;;;;;;;;;;;;;5114506;28;20363;-75
2023/09/27 06:59:45;;;;;;;;;;;;;;;;;;5113991;28;19908;-76
2023/09/27 07:02:11;;;;;;;;;;;;;;;;;;5113659;28;19908;-76
2023/09/27 07:04:38;;;;;;;;;;;;;;;;;;5113764;28;19908;-76
2023/09/27 07:07:04;;;;;;;;;;;;;;;;;;5113659;28;19939;-74
2023/09/27 07:09:33;;;;;;;;;;;;;;;;;;5114180;28;20212;-75
2023/09/27 07:11:58;;;;;;;;;;;;;;;;;;5112335;28;20458;-75
2023/09/27 07:14:24;;;;;;;;;;;;;;;;;;5112990;28;19963;-75
2023/09/27 07:16:50;;;;;;;;;;;;;;;;;;5110171;27;19950;-74
2023/09/27 07:19:17;;;;;;;;;;;;;;;;;;5108575;28;20036;-75
2023/09/27 07:21:43;;;;;;;;;;;;;;;;;;5111876;28;20003;-75
2023/09/27 07:24:13;;;;;;;;;;;;;;;;;;5110347;28;19968;-74
2023/09/27 07:26:41;;;;;;;;;;;;;;;;;;5110954;28;20007;-71
2023/09/27 07:29:07;;;;;;;;;;;;;;;;;;5112135;27;19908;-74
2023/09/27 07:31:33;;;;;;;;;;;;;;;;;;5113376;28;20374;-73
2023/09/27 07:34:00;;;;;;;;;;;;;;;;;;5112434;28;19911;-72
2023/09/27 07:36:26;;;;;;;;;;;;;;;;;;5112583;28;20374;-74
2023/09/27 07:38:55;;;;;;;;;;;;;;;;;;5113304;28;19956;-73
2023/09/27 07:41:21;;;;;;;;;;;;;;;;;;5113192;28;19907;-72
2023/09/27 07:43:50;;;;;;;;;;;;;;;;;;5112921;28;19923;-74
2023/09/27 07:46:17;;;;;;;;;;;;;;;;;;5113110;28;19904;-73
2023/09/27 07:48:43;;;;;;;;;;;;;;;;;;5113233;28;19912;-74
2023/09/27 07:51:09;;;;;;;;;;;;;;;;;;5112974;28;20389;-73
2023/09/27 07:53:37;;;;;;;;;;;;;;;;;;5111321;28;19915;-73
2023/09/27 07:56:03;;;;;;;;;;;;;;;;;;5111465;28;19961;-74
2023/09/27 07:58:29;;;;;;;;;;;;;;;;;;5112998;28;19912;-74
2023/09/27 08:00:55;;;;;;;;;;;;;;;;;;5113579;28;19908;-75
2023/09/27 08:03:21;;;;;;;;;;;;;;;;;;5112716;28;19914;-74
2023/09/27 08:05:49;;;;;;;;;;;;;;;;;;5112839;28;19995;-74
2023/09/27 08:08:15;;;;;;;;;;;;;;;;;;5113094;28;20271;-73
2023/09/27 08:10:45;;;;;;;;;;;;;;;;;;5113121;28;19912;-71
2023/09/27 08:13:11;;;;;;;;;;;;;;;;;;5113467;28;19908;-73
2023/09/27 08:15:37;;;;;;;;;;;;;;;;;;5112571;28;19918;-75
2023/09/27 08:18:03;;;;;;;;;;;;;;;;;;5113507;28;19947;-74
2023/09/27 08:20:29;;;;;;;;;;;;;;;;;;5113002;28;20390;-74
2023/09/27 08:22:55;;;;;;;;;;;;;;;;;;5115144;28;19930;-73
2023/09/27 08:25:21;;;;;;;;;;;;;;;;;;5114420;28;19919;-73
2023/09/27 08:27:50;;;;;;;;;;;;;;;;;;5112182;28;19938;-73
2023/09/27 08:30:16;;;;;;;;;;;;;;;;;;5112260;28;20342;-73
2023/09/27 08:32:42;;;;;;;;;;;;;;;;;;5112823;28;19943;-73
2023/09/27 08:35:08;;;;;;;;;;;;;;;;;;5112322;28;19910;-73
2023/09/27 08:37:34;;;;;;;;;;;;;;;;;;5111155;28;19929;-73
2023/09/27 08:39:59;;;;;;;;;;;;;;;;;;5112292;28;19904;-74
2023/09/27 08:42:25;;;;;;;;;;;;;;;;;;5112553;28;19916;-73
2023/09/27 08:44:51;;;;;;;;;;;;;;;;;;5112030;28;19904;-73
2023/09/27 08:47:18;;;;;;;;;;;;;;;;;;5112771;28;19907;-74
2023/09/27 08:49:43;;;;;;;;;;;;;;;;;;5112386;28;19904;-73
2023/09/27 08:52:09;;;;;;;;;;;;;;;;;;5111998;28;19911;-73
2023/09/27 08:54:37;;;;;;;;;;;;;;;;;;5112028;28;19962;-72
2023/09/27 08:57:03;;;;;;;;;;;;;;;;;;5110732;28;19907;-72
2023/09/27 08:59:29;;;;;;;;;;;;;;;;;;5112052;28;19919;-73
2023/09/27 09:01:57;;;;;;;;;;;;;;;;;;5111960;28;19912;-72
2023/09/27 09:04:23;;;;;;;;;;;;;;;;;;5111948;28;19908;-73
2023/09/27 09:06:50;;;;;;;;;;;;;;;;;;5112072;28;19911;-73
2023/09/27 09:09:16;;;;;;;;;;;;;;;;;;5111918;28;20447;-73
2023/09/27 09:11:47;;;;;;;;;;;;;;;;;;5111954;28;19916;-73
2023/09/27 09:14:16;;;;;;;;;;;;;;;;;;5112467;28;19954;-73
2023/09/27 09:16:47;;;;;;;;;;;;;;;;;;5113517;28;19921;-73
2023/09/27 09:19:13;;;;;;;;;;;;;;;;;;5112514;28;19935;-74
2023/09/27 09:21:39;;;;;;;;;;;;;;;;;;5112407;28;20036;-74
2023/09/27 09:24:05;;;;;;;;;;;;;;;;;;5112138;28;19951;-74
2023/09/27 09:26:31;;;;;;;;;;;;;;;;;;5112023;28;20360;-74
2023/09/27 09:28:57;;;;;;;;;;;;;;;;;;5111907;28;20002;-73
2023/09/27 09:31:23;;;;;;;;;;;;;;;;;;5110657;28;20022;-74
2023/09/27 09:33:49;;;;;;;;;;;;;;;;;;5111784;28;20325;-73
2023/09/27 09:36:15;;;;;;;;;;;;;;;;;;5111600;28;19908;-74
2023/09/27 09:38:40;;;;;;;;;;;;;;;;;;5114237;28;19943;-74
2023/09/27 09:41:06;;;;;;;;;;;;;;;;;;5115647;28;20002;-73
2023/09/27 09:43:33;;;;;;;;;;;;;;;;;;5115101;28;19943;-73
2023/09/27 09:46:00;;;;;;;;;;;;;;;;;;5115677;28;19918;-74
2023/09/27 09:48:26;;;;;;;;;;;;;;;;;;5115704;28;19908;-74
2023/09/27 09:50:54;;;;;;;;;;;;;;;;;;5116760;28;19919;-73
2023/09/27 09:53:20;;;;;;;;;;;;;;;;;;5115370;28;19908;-72
2023/09/27 09:55:46;;;;;;;;;;;;;;;;;;5115320;28;19912;-73
2023/09/27 09:58:12;;;;;;;;;;;;;;;;;;5115645;28;19915;-72
2023/09/27 10:00:39;;;;;;;;;;;;;;;;;;5115580;28;20297;-74
2023/09/27 10:03:05;;;;;;;;;;;;;;;;;;5115387;28;20355;-73
2023/09/27 10:05:31;;;;;;;;;;;;;;;;;;5115227;28;19908;-73
2023/09/27 10:07:57;;;;;;;;;;;;;;;;;;5115046;28;20385;-73
2023/09/27 10:10:24;;;;;;;;;;;;;;;;;;5113563;28;19988;-74
2023/09/27 10:12:50;;;;;;;;;;;;;;;;;;5114999;28;19938;-74
2023/09/27 10:15:17;;;;;;;;;;;;;;;;;;5115080;28;20532;-73
2023/09/27 10:17:43;;;;;;;;;;;;;;;;;;5115362;28;20002;-73
2023/09/27 10:20:12;;;;;;;;;;;;;;;;;;5115299;28;19939;-71
2023/09/27 10:22:38;;;;;;;;;;;;;;;;;;5115668;28;20042;-73
2023/09/27 10:25:04;;;;;;;;;;;;;;;;;;5115836;28;19907;-72
2023/09/27 10:27:32;;;;;;;;;;;;;;;;;;5115486;28;20342;-73
2023/09/27 10:29:58;;;;;;;;;;;;;;;;;;5116041;28;20301;-73
2023/09/27 10:32:24;;;;;;;;;;;;;;;;;;5114925;28;20347;-74
2023/09/27 10:34:51;;;;;;;;;;;;;;;;;;5115503;28;19990;-75
2023/09/27 10:37:17;;;;;;;;;;;;;;;;;;5116636;28;20255;-75
2023/09/27 10:39:43;;;;;;;;;;;;;;;;;;5115685;28;19947;-74
2023/09/27 10:42:09;;;;;;;;;;;;;;;;;;5115906;28;19920;-74
2023/09/27 10:44:36;;;;;;;;;;;;;;;;;;5114328;28;19915;-73
2023/09/27 10:47:03;;;;;;;;;;;;;;;;;;5114342;28;19907;-73
2023/09/27 10:49:38;;;;;;;;;;;;;;;;;;5113517;28;19919;-73
2023/09/27 10:52:04;;;;;;;;;;;;;;;;;;5114547;28;19916;-74
2023/09/27 10:54:30;;;;;;;;;;;;;;;;;;5114458;28;19995;-73
2023/09/27 10:56:56;;;;;;;;;;;;;;;;;;5113514;28;19959;-73
2023/09/27 10:59:22;;;;;;;;;;;;;;;;;;5106010;28;20401;-73
2023/09/27 11:01:48;;;;;;;;;;;;;;;;;;5100879;28;19907;-72
2023/09/27 11:04:16;;;;;;;;;;;;;;;;;;5113914;28;19908;-71
2023/09/27 11:06:42;;;;;;;;;;;;;;;;;;5114079;28;19911;-73
2023/09/27 11:09:08;;;;;;;;;;;;;;;;;;5112668;28;20007;-73
2023/09/27 11:11:34;;;;;;;;;;;;;;;;;;5112651;28;19943;-74
2023/09/27 11:14:00;;;;;;;;;;;;;;;;;;5104643;28;19998;-72
2023/09/27 11:16:26;;;;;;;;;;;;;;;;;;5096896;28;19908;-73
2023/09/27 11:18:52;;;;;;;;;;;;;;;;;;5112546;28;19914;-73
2023/09/27 11:21:19;;;;;;;;;;;;;;;;;;5109999;28;19954;-73
2023/09/27 11:23:44;;;;;;;;;;;;;;;;;;5093350;28;19941;-73
2023/09/27 11:26:10;;;;;;;;;;;;;;;;;;5092019;28;19929;-73
2023/09/27 11:28:36;;;;;;;;;;;;;;;;;;5093339;28;19908;-73
2023/09/27 11:31:04;;;;;;;;;;;;;;;;;;5105971;28;19912;-73
2023/09/27 11:33:30;;;;;;;;;;;;;;;;;;5113202;28;19976;-73
2023/09/27 11:35:56;;;;;;;;;;;;;;;;;;5113378;28;20366;-73
2023/09/27 11:38:22;;;;;;;;;;;;;;;;;;5113697;28;19972;-74
2023/09/27 11:40:50;;;;;;;;;;;;;;;;;;5113396;28;19946;-73
2023/09/27 11:43:17;;;;;;;;;;;;;;;;;;5112941;28;19955;-72
2023/09/27 11:45:43;;;;;;;;;;;;;;;;;;5113053;28;19939;-73
2023/09/27 11:48:09;;;;;;;;;;;;;;;;;;5098365;28;20398;-73
2023/09/27 11:50:35;;;;;;;;;;;;;;;;;;5093008;28;20427;-73
2023/09/27 11:53:01;;;;;;;;;;;;;;;;;;5092669;28;20036;-73
2023/09/27 11:55:27;;;;;;;;;;;;;;;;;;5092423;28;19909;-72
2023/09/27 11:57:53;;;;;;;;;;;;;;;;;;5092724;28;19908;-73
2023/09/27 12:00:22;;;;;;;;;;;;;;;;;;5092497;28;19977;-73
2023/09/27 12:02:48;;;;;;;;;;;;;;;;;;5092417;28;19996;-73
2023/09/27 12:05:15;;;;;;;;;;;;;;;;;;5092605;28;19912;-75
2023/09/27 12:07:41;;;;;;;;;;;;;;;;;;5092910;28;20311;-72
2023/09/27 12:10:07;;;;;;;;;;;;;;;;;;5092520;28;19915;-73
2023/09/27 12:12:33;;;;;;;;;;;;;;;;;;5092357;28;19909;-73
2023/09/27 12:15:00;;;;;;;;;;;;;;;;;;5091325;28;20298;-73
2023/09/27 12:17:26;;;;;;;;;;;;;;;;;;5091508;28;19962;-73
2023/09/27 12:19:53;;;;;;;;;;;;;;;;;;5091227;28;20535;-74
2023/09/27 12:22:19;;;;;;;;;;;;;;;;;;5092032;28;19912;-73
2023/09/27 12:24:46;;;;;;;;;;;;;;;;;;5091610;28;19908;-73
2023/09/27 12:27:12;;;;;;;;;;;;;;;;;;5090870;28;19915;-72
2023/09/27 12:29:38;;;;;;;;;;;;;;;;;;5091192;28;19991;-72
2023/09/27 12:32:04;;;;;;;;;;;;;;;;;;5091788;28;20446;-73
2023/09/27 12:34:30;;;;;;;;;;;;;;;;;;5091983;28;19908;-73
2023/09/27 12:36:56;;;;;;;;;;;;;;;;;;5092073;28;19916;-74
2023/09/27 12:39:22;;;;;;;;;;;;;;;;;;5092065;28;20301;-71
2023/09/27 12:41:47;;;;;;;;;;;;;;;;;;5115088;22;19912;-72
2023/09/27 12:44:13;;;;;;;;;;;;;;;;;;5068028;28;19916;-72
2023/09/27 12:46:40;;;;;;;;;;;;;;;;;;5071306;28;20372;-73
2023/09/27 12:49:06;;;;;;;;;;;;;;;;;;5071898;28;19909;-72
2023/09/27 12:51:32;;;;;;;;;;;;;;;;;;5071766;28;19912;-72
2023/09/27 12:53:58;;;;;;;;;;;;;;;;;;5070996;28;20283;-73
2023/09/27 12:56:24;;;;;;;;;;;;;;;;;;5071572;28;19915;-73
2023/09/27 12:58:50;;;;;;;;;;;;;;;;;;5071269;28;19908;-73
2023/09/27 13:01:16;;;;;;;;;;;;;;;;;;5071748;28;19919;-72
2023/09/27 13:03:42;;;;;;;;;;;;;;;;;;5070828;28;19908;-73
2023/09/27 13:06:08;;;;;;;;;;;;;;;;;;5071517;28;19931;-73
2023/09/27 13:08:34;;;;;;;;;;;;;;;;;;5071849;28;19908;-72
2023/09/27 13:11:00;;;;;;;;;;;;;;;;;;5071466;28;19913;-73
2023/09/27 13:13:27;;;;;;;;;;;;;;;;;;5071909;28;20256;-72
2023/09/27 13:15:53;;;;;;;;;;;;;;;;;;5075672;28;19911;-72
2023/09/27 13:18:19;;;;;;;;;;;;;;;;;;5075431;28;20000;-73
2023/09/27 13:20:45;;;;;;;;;;;;;;;;;;5075341;28;20317;-72
2023/09/27 13:23:11;;;;;;;;;;;;;;;;;;5075151;28;19962;-72
2023/09/27 13:25:36;;;;;;;;;;;;;;;;;;5075008;28;19905;-73
2023/09/27 13:28:02;;;;;;;;;;;;;;;;;;5075128;28;19952;-73
2023/09/27 13:30:29;;;;;;;;;;;;;;;;;;5075235;28;19924;-72
2023/09/27 13:32:55;;;;;;;;;;;;;;;;;;5075130;28;19908;-73
2023/09/27 13:35:21;;;;;;;;;;;;;;;;;;5074814;28;19935;-72
2023/09/27 13:37:47;;;;;;;;;;;;;;;;;;5074951;28;20022;-73
2023/09/27 13:40:13;;;;;;;;;;;;;;;;;;5074845;28;19908;-73
2023/09/27 13:42:40;;;;;;;;;;;;;;;;;;5074408;28;20072;-73
2023/09/27 13:45:06;;;;;;;;;;;;;;;;;;5074531;28;19912;-73
2023/09/27 13:47:34;;;;;;;;;;;;;;;;;;5074529;28;20308;-73
2023/09/27 13:50:00;;;;;;;;;;;;;;;;;;5073372;28;19908;-72
2023/09/27 13:52:26;;;;;;;;;;;;;;;;;;5074352;28;19999;-73
2023/09/27 13:54:52;;;;;;;;;;;;;;;;;;5074018;28;19952;-73
2023/09/27 13:57:18;;;;;;;;;;;;;;;;;;5074445;28;19909;-73
2023/09/27 13:59:45;;;;;;;;;;;;;;;;;;5074592;28;19908;-73
2023/09/27 14:02:14;;;;;;;;;;;;;;;;;;5072946;28;19912;-73
2023/09/27 14:04:40;;;;;;;;;;;;;;;;;;5074222;28;20337;-73
2023/09/27 14:07:06;;;;;;;;;;;;;;;;;;5074107;28;19912;-73
2023/09/27 14:09:32;;;;;;;;;;;;;;;;;;5074335;28;19908;-73
2023/09/27 14:11:57;;;;;;;;;;;;;;;;;;5073901;28;19935;-73
2023/09/27 14:14:24;;;;;;;;;;;;;;;;;;5074061;28;19908;-75
2023/09/27 14:16:50;;;;;;;;;;;;;;;;;;5074120;28;19908;-74
2023/09/27 14:19:16;;;;;;;;;;;;;;;;;;5074153;28;19966;-73
2023/09/27 14:21:43;;;;;;;;;;;;;;;;;;5074180;28;19909;-73
2023/09/27 14:24:09;;;;;;;;;;;;;;;;;;5072496;28;19908;-72
2023/09/27 14:26:36;;;;;;;;;;;;;;;;;;5073845;28;19908;-74
2023/09/27 14:29:03;;;;;;;;;;;;;;;;;;5074035;28;19955;-73
2023/09/27 14:31:29;;;;;;;;;;;;;;;;;;5073778;28;20376;-72
2023/09/27 14:33:57;;;;;;;;;;;;;;;;;;5072732;28;20483;-73
2023/09/27 14:36:24;;;;;;;;;;;;;;;;;;5073715;28;19908;-72
2023/09/27 14:38:50;;;;;;;;;;;;;;;;;;5072701;28;19908;-72
2023/09/27 14:41:16;;;;;;;;;;;;;;;;;;5073694;28;19954;-73
2023/09/27 14:43:42;;;;;;;;;;;;;;;;;;5073390;28;19916;-73
2023/09/27 14:46:08;;;;;;;;;;;;;;;;;;5073607;28;19959;-73
2023/09/27 14:48:34;;;;;;;;;;;;;;;;;;5073827;28;19908;-73
2023/09/27 14:51:00;;;;;;;;;;;;;;;;;;5073543;28;19919;-72
2023/09/27 14:53:26;;;;;;;;;;;;;;;;;;5073648;28;19909;-72
2023/09/27 14:55:52;;;;;;;;;;;;;;;;;;5073511;28;20291;-73
2023/09/27 14:58:17;;;;;;;;;;;;;;;;;;5073397;28;20380;-72
2023/09/27 15:00:43;;;;;;;;;;;;;;;;;;5070732;28;19916;-73
2023/09/27 15:03:09;;;;;;;;;;;;;;;;;;5073369;28;19909;-72
2023/09/27 15:05:37;;;;;;;;;;;;;;;;;;5073222;28;20007;-72
2023/09/27 15:08:03;;;;;;;;;;;;;;;;;;5073214;28;19962;-73
2023/09/27 15:10:29;;;;;;;;;;;;;;;;;;5073430;28;19909;-72
2023/09/27 15:12:54;;;;;;;;;;;;;;;;;;5073296;28;19920;-73
2023/09/27 15:15:20;;;;;;;;;;;;;;;;;;5072861;28;20275;-72
2023/09/27 15:17:46;;;;;;;;;;;;;;;;;;5073178;28;19916;-73
2023/09/27 15:20:12;;;;;;;;;;;;;;;;;;5073100;28;19995;-73
2023/09/27 15:22:38;;;;;;;;;;;;;;;;;;5073150;28;19951;-73
2023/09/27 15:25:05;;;;;;;;;;;;;;;;;;5072994;28;20015;-73
2023/09/27 15:27:31;;;;;;;;;;;;;;;;;;5073197;28;19963;-73
2023/09/27 15:29:57;;;;;;;;;;;;;;;;;;5072123;28;20272;-73
2023/09/27 15:32:23;;;;;;;;;;;;;;;;;;5072832;28;19966;-73
2023/09/27 15:34:49;;;;;;;;;;;;;;;;;;5072270;28;19948;-73
2023/09/27 15:37:15;;;;;;;;;;;;;;;;;;5072125;28;19915;-73
2023/09/27 15:39:41;;;;;;;;;;;;;;;;;;5072670;28;19909;-73
2023/09/27 15:42:07;;;;;;;;;;;;;;;;;;5072435;28;19944;-73
2023/09/27 15:44:33;;;;;;;;;;;;;;;;;;5072272;28;19908;-73
2023/09/27 15:47:00;;;;;;;;;;;;;;;;;;5072488;28;20314;-73
2023/09/27 15:49:25;;;;;;;;;;;;;;;;;;5072432;28;19989;-73
2023/09/27 15:51:51;;;;;;;;;;;;;;;;;;5072456;28;20359;-72
2023/09/27 15:54:17;;;;;;;;;;;;;;;;;;5072365;28;19909;-73
2023/09/27 15:56:43;;;;;;;;;;;;;;;;;;5072210;28;19913;-73
2023/09/27 15:59:09;;;;;;;;;;;;;;;;;;5072369;28;19908;-73
2023/09/27 16:01:36;;;;;;;;;;;;;;;;;;5072138;28;20418;-73
2023/09/27 16:04:04;;;;;;;;;;;;;;;;;;5071927;28;20029;-73
2023/09/27 16:06:30;;;;;;;;;;;;;;;;;;5072260;28;20330;-73
2023/09/27 16:08:56;;;;;;;;;;;;;;;;;;5072203;28;20003;-72
2023/09/27 16:11:22;;;;;;;;;;;;;;;;;;5072102;28;20331;-73
2023/09/27 16:13:47;;;;;;;;;;;;;;;;;;5055208;28;19909;-73
2023/09/27 16:16:13;;;;;;;;;;;;;;;;;;5060394;28;19913;-73
2023/09/27 16:18:39;;;;;;;;;;;;;;;;;;5064023;28;20398;-73
2023/09/27 16:21:05;;;;;;;;;;;;;;;;;;5052189;28;19912;-72
2023/09/27 16:23:31;;;;;;;;;;;;;;;;;;5051658;28;19916;-74
2023/09/27 16:25:57;;;;;;;;;;;;;;;;;;5052036;28;19954;-74
2023/09/27 16:28:23;;;;;;;;;;;;;;;;;;5070858;28;20294;-73
2023/09/27 16:30:49;;;;;;;;;;;;;;;;;;5061516;28;19987;-74
2023/09/27 16:33:15;;;;;;;;;;;;;;;;;;5070618;28;20428;-73
2023/09/27 16:35:41;;;;;;;;;;;;;;;;;;5071746;28;20018;-73
2023/09/27 16:38:09;;;;;;;;;;;;;;;;;;5071902;28;19909;-73
2023/09/27 16:40:35;;;;;;;;;;;;;;;;;;5071976;28;19909;-73